sensor_id;sensor_type;location;lat;lon;timestamp;temperature;humidity
17632;DHT22;8934;51.194;17.150;2023-03-24T00:02:45;9.80;99.90
17632;DHT22;8934;51.194;17.150;2023-03-24T00:05:33;9.70;99.90
17632;DHT22;8934;51.194;17.150;2023-03-24T00:08:22;9.60;99.90
17632;DHT22;8934;51.194;17.150;2023-03-24T00:11:11;9.50;99.90
17632;DHT22;8934;51.194;17.150;2023-03-24T00:13:59;9.40;99.90
17632;DHT22;8934;51.194;17.150;2023-03-24T00:16:48;9.40;99.90
17632;DHT22;8934;51.194;17.150;2023-03-24T00:19:37;9.40;99.90
17632;DHT22;8934;51.194;17.150;2023-03-24T00:22:24;9.40;99.90
17632;DHT22;8934;51.194;17.150;2023-03-24T00:25:14;9.40;99.90
17632;DHT22;8934;51.194;17.150;2023-03-24T00:28:02;9.50;99.90
17632;DHT22;8934;51.194;17.150;2023-03-24T00:30:51;9.50;99.90
17632;DHT22;8934;51.194;17.150;2023-03-24T00:33:40;9.50;99.90
17632;DHT22;8934;51.194;17.150;2023-03-24T00:36:30;9.60;99.90
17632;DHT22;8934;51.194;17.150;2023-03-24T00:39:18;9.60;99.90
17632;DHT22;8934;51.194;17.150;2023-03-24T00:42:06;9.60;99.90
17632;DHT22;8934;51.194;17.150;2023-03-24T00:44:54;9.60;99.90
17632;DHT22;8934;51.194;17.150;2023-03-24T00:47:42;9.60;99.90
17632;DHT22;8934;51.194;17.150;2023-03-24T00:50:30;9.60;99.90
17632;DHT22;8934;51.194;17.150;2023-03-24T00:53:21;9.60;99.90
17632;DHT22;8934;51.194;17.150;2023-03-24T00:56:10;9.70;99.90
17632;DHT22;8934;51.194;17.150;2023-03-24T00:59:01;9.80;99.90
17632;DHT22;8934;51.194;17.150;2023-03-24T01:01:48;10.00;99.90
17632;DHT22;8934;51.194;17.150;2023-03-24T01:04:37;10.10;99.90
17632;DHT22;8934;51.194;17.150;2023-03-24T01:07:26;10.20;99.90
17632;DHT22;8934;51.194;17.150;2023-03-24T01:10:19;10.30;99.90
17632;DHT22;8934;51.194;17.150;2023-03-24T01:13:11;10.30;99.90
17632;DHT22;8934;51.194;17.150;2023-03-24T01:15:59;10.30;99.90
17632;DHT22;8934;51.194;17.150;2023-03-24T01:18:47;10.20;99.90
17632;DHT22;8934;51.194;17.150;2023-03-24T01:21:34;10.20;99.90
17632;DHT22;8934;51.194;17.150;2023-03-24T01:24:22;10.20;99.90
17632;DHT22;8934;51.194;17.150;2023-03-24T01:27:13;10.20;99.90
17632;DHT22;8934;51.194;17.150;2023-03-24T01:30:01;10.30;99.90
17632;DHT22;8934;51.194;17.150;2023-03-24T01:32:50;10.30;99.90
17632;DHT22;8934;51.194;17.150;2023-03-24T01:35:38;10.30;99.90
17632;DHT22;8934;51.194;17.150;2023-03-24T01:38:26;10.30;99.90
17632;DHT22;8934;51.194;17.150;2023-03-24T01:41:14;10.30;99.90
17632;DHT22;8934;51.194;17.150;2023-03-24T01:44:26;10.20;99.90
17632;DHT22;8934;51.194;17.150;2023-03-24T01:47:14;10.10;99.90
17632;DHT22;8934;51.194;17.150;2023-03-24T01:50:02;10.10;99.90
17632;DHT22;8934;51.194;17.150;2023-03-24T01:52:50;10.00;99.90
17632;DHT22;8934;51.194;17.150;2023-03-24T01:55:39;10.00;99.90
17632;DHT22;8934;51.194;17.150;2023-03-24T01:58:31;10.00;99.90
17632;DHT22;8934;51.194;17.150;2023-03-24T02:01:44;9.90;99.90
17632;DHT22;8934;51.194;17.150;2023-03-24T02:04:52;9.90;99.90
17632;DHT22;8934;51.194;17.150;2023-03-24T02:07:49;9.90;99.90
17632;DHT22;8934;51.194;17.150;2023-03-24T02:10:38;9.90;99.90
17632;DHT22;8934;51.194;17.150;2023-03-24T02:13:26;9.90;99.90
17632;DHT22;8934;51.194;17.150;2023-03-24T02:16:23;10.00;99.90
17632;DHT22;8934;51.194;17.150;2023-03-24T02:19:48;10.00;99.90
17632;DHT22;8934;51.194;17.150;2023-03-24T02:23:09;10.00;99.90
17632;DHT22;8934;51.194;17.150;2023-03-24T02:33:30;10.10;99.90
17632;DHT22;8934;51.194;17.150;2023-03-24T02:40:06;10.10;99.90
17632;DHT22;8934;51.194;17.150;2023-03-24T02:43:16;10.10;99.90
17632;DHT22;8934;51.194;17.150;2023-03-24T02:46:11;10.10;99.90
17632;DHT22;8934;51.194;17.150;2023-03-24T02:49:10;10.10;99.90
17632;DHT22;8934;51.194;17.150;2023-03-24T02:52:05;10.10;99.90
17632;DHT22;8934;51.194;17.150;2023-03-24T02:55:02;10.10;99.90
17632;DHT22;8934;51.194;17.150;2023-03-24T02:57:57;10.10;99.90
17632;DHT22;8934;51.194;17.150;2023-03-24T03:01:07;10.10;99.90
17632;DHT22;8934;51.194;17.150;2023-03-24T03:04:02;10.10;99.90
17632;DHT22;8934;51.194;17.150;2023-03-24T03:06:55;10.10;99.90
17632;DHT22;8934;51.194;17.150;2023-03-24T03:09:48;10.10;99.90
17632;DHT22;8934;51.194;17.150;2023-03-24T03:12:40;10.10;99.90
17632;DHT22;8934;51.194;17.150;2023-03-24T03:15:32;10.10;99.90
17632;DHT22;8934;51.194;17.150;2023-03-24T03:18:23;10.10;99.90
17632;DHT22;8934;51.194;17.150;2023-03-24T03:21:16;10.20;99.90
17632;DHT22;8934;51.194;17.150;2023-03-24T03:24:09;10.20;99.90
17632;DHT22;8934;51.194;17.150;2023-03-24T03:27:02;10.30;99.90
17632;DHT22;8934;51.194;17.150;2023-03-24T03:29:56;10.30;99.90
17632;DHT22;8934;51.194;17.150;2023-03-24T03:32:48;10.40;99.90
17632;DHT22;8934;51.194;17.150;2023-03-24T03:35:44;10.40;99.90
17632;DHT22;8934;51.194;17.150;2023-03-24T03:38:43;10.40;99.90
17632;DHT22;8934;51.194;17.150;2023-03-24T03:41:33;10.40;99.90
17632;DHT22;8934;51.194;17.150;2023-03-24T03:44:21;10.40;99.90
17632;DHT22;8934;51.194;17.150;2023-03-24T03:47:10;10.30;99.90
17632;DHT22;8934;51.194;17.150;2023-03-24T03:50:01;10.40;99.90
17632;DHT22;8934;51.194;17.150;2023-03-24T03:52:49;10.40;99.90
17632;DHT22;8934;51.194;17.150;2023-03-24T03:55:38;10.40;99.90
17632;DHT22;8934;51.194;17.150;2023-03-24T03:58:27;10.40;99.90
17632;DHT22;8934;51.194;17.150;2023-03-24T04:01:18;10.40;99.90
17632;DHT22;8934;51.194;17.150;2023-03-24T04:04:48;10.40;99.90
17632;DHT22;8934;51.194;17.150;2023-03-24T04:08:16;10.50;99.90
17632;DHT22;8934;51.194;17.150;2023-03-24T04:11:30;10.50;99.90
17632;DHT22;8934;51.194;17.150;2023-03-24T04:18:36;10.60;99.90
17632;DHT22;8934;51.194;17.150;2023-03-24T04:21:45;10.60;99.90
17632;DHT22;8934;51.194;17.150;2023-03-24T04:24:43;10.60;99.90
17632;DHT22;8934;51.194;17.150;2023-03-24T04:27:42;10.70;99.90
17632;DHT22;8934;51.194;17.150;2023-03-24T04:30:38;10.80;99.90
17632;DHT22;8934;51.194;17.150;2023-03-24T04:33:38;10.80;99.90
17632;DHT22;8934;51.194;17.150;2023-03-24T04:36:29;10.80;99.90
17632;DHT22;8934;51.194;17.150;2023-03-24T04:39:53;10.80;99.90
17632;DHT22;8934;51.194;17.150;2023-03-24T04:42:46;10.80;99.90
17632;DHT22;8934;51.194;17.150;2023-03-24T04:45:41;10.80;99.90
17632;DHT22;8934;51.194;17.150;2023-03-24T04:48:52;10.80;99.90
17632;DHT22;8934;51.194;17.150;2023-03-24T04:51:52;10.70;99.90
17632;DHT22;8934;51.194;17.150;2023-03-24T04:54:45;10.70;99.90
17632;DHT22;8934;51.194;17.150;2023-03-24T04:57:35;10.70;99.90
17632;DHT22;8934;51.194;17.150;2023-03-24T05:00:24;10.70;99.90
17632;DHT22;8934;51.194;17.150;2023-03-24T05:03:14;10.80;99.90
17632;DHT22;8934;51.194;17.150;2023-03-24T05:06:04;10.80;99.90
17632;DHT22;8934;51.194;17.150;2023-03-24T05:08:53;10.80;99.90
17632;DHT22;8934;51.194;17.150;2023-03-24T05:11:47;10.80;99.90
17632;DHT22;8934;51.194;17.150;2023-03-24T05:14:38;10.90;99.90
17632;DHT22;8934;51.194;17.150;2023-03-24T05:17:26;11.00;99.90
17632;DHT22;8934;51.194;17.150;2023-03-24T05:20:14;11.00;99.90
17632;DHT22;8934;51.194;17.150;2023-03-24T05:23:06;11.10;99.90
17632;DHT22;8934;51.194;17.150;2023-03-24T05:25:54;11.10;99.90
17632;DHT22;8934;51.194;17.150;2023-03-24T05:28:43;11.20;99.90
17632;DHT22;8934;51.194;17.150;2023-03-24T05:31:32;11.30;99.90
17632;DHT22;8934;51.194;17.150;2023-03-24T05:34:28;11.40;99.90
17632;DHT22;8934;51.194;17.150;2023-03-24T05:37:24;11.50;99.90
17632;DHT22;8934;51.194;17.150;2023-03-24T05:40:13;11.60;99.90
17632;DHT22;8934;51.194;17.150;2023-03-24T05:43:21;11.70;99.90
17632;DHT22;8934;51.194;17.150;2023-03-24T05:46:19;11.70;99.90
17632;DHT22;8934;51.194;17.150;2023-03-24T05:49:11;11.80;99.90
17632;DHT22;8934;51.194;17.150;2023-03-24T05:52:00;11.90;99.90
17632;DHT22;8934;51.194;17.150;2023-03-24T05:54:49;12.00;99.90
17632;DHT22;8934;51.194;17.150;2023-03-24T05:57:41;12.00;99.90
17632;DHT22;8934;51.194;17.150;2023-03-24T06:00:47;12.10;99.90
17632;DHT22;8934;51.194;17.150;2023-03-24T06:03:45;12.10;99.90
17632;DHT22;8934;51.194;17.150;2023-03-24T06:06:36;12.20;99.90
17632;DHT22;8934;51.194;17.150;2023-03-24T06:09:24;12.20;99.90
17632;DHT22;8934;51.194;17.150;2023-03-24T06:12:13;12.20;99.90
17632;DHT22;8934;51.194;17.150;2023-03-24T06:15:18;12.30;99.90
17632;DHT22;8934;51.194;17.150;2023-03-24T06:18:07;12.30;99.90
17632;DHT22;8934;51.194;17.150;2023-03-24T06:20:54;12.40;99.90
17632;DHT22;8934;51.194;17.150;2023-03-24T06:23:49;12.50;99.90
17632;DHT22;8934;51.194;17.150;2023-03-24T06:26:44;12.60;99.90
17632;DHT22;8934;51.194;17.150;2023-03-24T06:29:36;12.70;99.90
17632;DHT22;8934;51.194;17.150;2023-03-24T06:32:25;12.80;99.90
17632;DHT22;8934;51.194;17.150;2023-03-24T06:35:13;12.90;99.90
17632;DHT22;8934;51.194;17.150;2023-03-24T06:38:06;13.00;99.90
17632;DHT22;8934;51.194;17.150;2023-03-24T06:41:00;13.10;99.90
17632;DHT22;8934;51.194;17.150;2023-03-24T06:43:48;13.20;99.90
17632;DHT22;8934;51.194;17.150;2023-03-24T06:46:36;13.30;99.90
17632;DHT22;8934;51.194;17.150;2023-03-24T06:49:25;13.40;99.90
17632;DHT22;8934;51.194;17.150;2023-03-24T06:52:13;13.40;99.90
17632;DHT22;8934;51.194;17.150;2023-03-24T06:55:01;13.60;99.90
17632;DHT22;8934;51.194;17.150;2023-03-24T06:57:50;13.70;99.90
17632;DHT22;8934;51.194;17.150;2023-03-24T07:01:00;13.90;99.90
17632;DHT22;8934;51.194;17.150;2023-03-24T07:03:58;14.10;99.90
17632;DHT22;8934;51.194;17.150;2023-03-24T07:07:02;14.10;99.90
17632;DHT22;8934;51.194;17.150;2023-03-24T07:10:29;14.20;99.90
17632;DHT22;8934;51.194;17.150;2023-03-24T07:13:19;14.30;99.90
17632;DHT22;8934;51.194;17.150;2023-03-24T07:16:07;14.30;99.90
17632;DHT22;8934;51.194;17.150;2023-03-24T07:22:37;14.20;99.90
17632;DHT22;8934;51.194;17.150;2023-03-24T07:25:43;14.10;99.90
17632;DHT22;8934;51.194;17.150;2023-03-24T07:28:38;14.10;99.90
17632;DHT22;8934;51.194;17.150;2023-03-24T07:31:26;14.10;99.90
17632;DHT22;8934;51.194;17.150;2023-03-24T07:34:19;14.20;99.90
17632;DHT22;8934;51.194;17.150;2023-03-24T07:37:07;14.20;99.90
17632;DHT22;8934;51.194;17.150;2023-03-24T07:39:55;14.30;99.90
17632;DHT22;8934;51.194;17.150;2023-03-24T07:42:43;14.40;99.90
17632;DHT22;8934;51.194;17.150;2023-03-24T07:45:43;14.50;99.90
17632;DHT22;8934;51.194;17.150;2023-03-24T07:48:32;14.50;99.90
17632;DHT22;8934;51.194;17.150;2023-03-24T07:51:20;14.40;99.90
17632;DHT22;8934;51.194;17.150;2023-03-24T07:54:27;14.40;99.90
17632;DHT22;8934;51.194;17.150;2023-03-24T07:57:15;14.30;99.90
17632;DHT22;8934;51.194;17.150;2023-03-24T08:00:03;14.20;99.90
17632;DHT22;8934;51.194;17.150;2023-03-24T08:03:12;14.10;99.90
17632;DHT22;8934;51.194;17.150;2023-03-24T08:06:08;14.00;99.90
17632;DHT22;8934;51.194;17.150;2023-03-24T08:09:01;13.90;99.90
17632;DHT22;8934;51.194;17.150;2023-03-24T08:11:49;13.80;99.90
17632;DHT22;8934;51.194;17.150;2023-03-24T08:14:37;13.80;99.90
17632;DHT22;8934;51.194;17.150;2023-03-24T08:17:25;13.80;99.90
17632;DHT22;8934;51.194;17.150;2023-03-24T08:20:14;13.70;99.90
17632;DHT22;8934;51.194;17.150;2023-03-24T08:23:02;13.70;99.90
17632;DHT22;8934;51.194;17.150;2023-03-24T08:25:50;13.80;99.90
17632;DHT22;8934;51.194;17.150;2023-03-24T08:28:38;13.80;99.90
17632;DHT22;8934;51.194;17.150;2023-03-24T08:31:30;13.90;99.90
17632;DHT22;8934;51.194;17.150;2023-03-24T08:34:18;14.10;99.90
17632;DHT22;8934;51.194;17.150;2023-03-24T08:37:07;14.20;99.90
17632;DHT22;8934;51.194;17.150;2023-03-24T08:39:55;14.40;99.90
17632;DHT22;8934;51.194;17.150;2023-03-24T08:42:46;14.60;99.90
17632;DHT22;8934;51.194;17.150;2023-03-24T08:45:35;15.00;99.90
17632;DHT22;8934;51.194;17.150;2023-03-24T08:48:23;15.40;99.90
17632;DHT22;8934;51.194;17.150;2023-03-24T08:51:12;15.80;99.90
17632;DHT22;8934;51.194;17.150;2023-03-24T08:54:01;16.10;99.90
17632;DHT22;8934;51.194;17.150;2023-03-24T08:56:49;16.40;99.90
17632;DHT22;8934;51.194;17.150;2023-03-24T08:59:37;16.60;99.90
17632;DHT22;8934;51.194;17.150;2023-03-24T09:02:25;16.70;99.90
17632;DHT22;8934;51.194;17.150;2023-03-24T09:05:13;16.80;99.90
17632;DHT22;8934;51.194;17.150;2023-03-24T09:08:13;16.80;99.90
17632;DHT22;8934;51.194;17.150;2023-03-24T09:11:03;16.80;99.90
17632;DHT22;8934;51.194;17.150;2023-03-24T09:13:51;16.80;99.90
17632;DHT22;8934;51.194;17.150;2023-03-24T09:16:39;16.90;99.90
17632;DHT22;8934;51.194;17.150;2023-03-24T09:19:29;17.00;99.90
17632;DHT22;8934;51.194;17.150;2023-03-24T09:22:17;17.10;99.90
17632;DHT22;8934;51.194;17.150;2023-03-24T09:25:06;17.40;99.90
17632;DHT22;8934;51.194;17.150;2023-03-24T09:27:55;17.70;99.90
17632;DHT22;8934;51.194;17.150;2023-03-24T09:30:43;17.90;99.90
17632;DHT22;8934;51.194;17.150;2023-03-24T09:33:31;18.00;99.90
17632;DHT22;8934;51.194;17.150;2023-03-24T09:36:23;18.10;99.90
17632;DHT22;8934;51.194;17.150;2023-03-24T09:39:11;18.10;99.90
17632;DHT22;8934;51.194;17.150;2023-03-24T09:41:58;18.10;99.90
17632;DHT22;8934;51.194;17.150;2023-03-24T09:44:51;18.00;99.90
17632;DHT22;8934;51.194;17.150;2023-03-24T09:47:42;17.90;99.90
17632;DHT22;8934;51.194;17.150;2023-03-24T09:50:38;17.80;99.90
17632;DHT22;8934;51.194;17.150;2023-03-24T09:53:30;17.60;99.90
17632;DHT22;8934;51.194;17.150;2023-03-24T09:56:21;17.50;99.90
17632;DHT22;8934;51.194;17.150;2023-03-24T09:59:24;17.40;99.90
17632;DHT22;8934;51.194;17.150;2023-03-24T10:02:18;17.20;99.90
17632;DHT22;8934;51.194;17.150;2023-03-24T10:05:12;17.10;99.90
17632;DHT22;8934;51.194;17.150;2023-03-24T10:08:05;17.00;99.90
17632;DHT22;8934;51.194;17.150;2023-03-24T10:10:57;17.00;99.90
17632;DHT22;8934;51.194;17.150;2023-03-24T10:13:56;17.00;99.90
17632;DHT22;8934;51.194;17.150;2023-03-24T10:16:55;17.10;99.90
17632;DHT22;8934;51.194;17.150;2023-03-24T10:19:49;17.30;99.90
17632;DHT22;8934;51.194;17.150;2023-03-24T10:22:50;17.40;99.90
17632;DHT22;8934;51.194;17.150;2023-03-24T10:25:47;17.50;99.90
17632;DHT22;8934;51.194;17.150;2023-03-24T10:28:41;17.60;99.90
17632;DHT22;8934;51.194;17.150;2023-03-24T10:31:32;17.80;99.90
17632;DHT22;8934;51.194;17.150;2023-03-24T10:34:27;17.90;99.90
17632;DHT22;8934;51.194;17.150;2023-03-24T10:37:18;18.00;99.90
17632;DHT22;8934;51.194;17.150;2023-03-24T10:40:14;18.10;99.90
17632;DHT22;8934;51.194;17.150;2023-03-24T10:43:06;18.30;99.90
17632;DHT22;8934;51.194;17.150;2023-03-24T10:45:56;18.60;99.90
17632;DHT22;8934;51.194;17.150;2023-03-24T10:48:46;18.90;99.90
17632;DHT22;8934;51.194;17.150;2023-03-24T10:51:35;19.10;99.90
17632;DHT22;8934;51.194;17.150;2023-03-24T10:54:25;19.30;99.90
17632;DHT22;8934;51.194;17.150;2023-03-24T10:57:16;19.60;99.90
17632;DHT22;8934;51.194;17.150;2023-03-24T11:00:06;19.70;99.90
17632;DHT22;8934;51.194;17.150;2023-03-24T11:03:00;19.70;99.90
17632;DHT22;8934;51.194;17.150;2023-03-24T11:05:49;19.80;99.90
17632;DHT22;8934;51.194;17.150;2023-03-24T11:08:44;19.90;99.90
17632;DHT22;8934;51.194;17.150;2023-03-24T11:11:34;19.80;99.90
17632;DHT22;8934;51.194;17.150;2023-03-24T11:14:24;19.70;99.90
17632;DHT22;8934;51.194;17.150;2023-03-24T11:17:13;19.60;99.90
17632;DHT22;8934;51.194;17.150;2023-03-24T11:20:01;19.50;99.90
17632;DHT22;8934;51.194;17.150;2023-03-24T11:22:59;19.40;99.90
17632;DHT22;8934;51.194;17.150;2023-03-24T11:25:53;19.40;99.90
17632;DHT22;8934;51.194;17.150;2023-03-24T11:28:50;19.40;99.90
17632;DHT22;8934;51.194;17.150;2023-03-24T11:31:39;19.40;99.90
17632;DHT22;8934;51.194;17.150;2023-03-24T11:34:30;19.40;99.90
17632;DHT22;8934;51.194;17.150;2023-03-24T11:37:20;19.40;99.90
17632;DHT22;8934;51.194;17.150;2023-03-24T11:40:18;19.30;99.90
17632;DHT22;8934;51.194;17.150;2023-03-24T11:43:19;19.30;99.90
17632;DHT22;8934;51.194;17.150;2023-03-24T11:46:11;19.20;99.90
17632;DHT22;8934;51.194;17.150;2023-03-24T11:49:03;19.10;99.90
17632;DHT22;8934;51.194;17.150;2023-03-24T11:51:53;19.00;99.90
17632;DHT22;8934;51.194;17.150;2023-03-24T11:54:42;18.80;99.90
17632;DHT22;8934;51.194;17.150;2023-03-24T11:57:43;18.70;99.90
17632;DHT22;8934;51.194;17.150;2023-03-24T12:00:36;18.70;99.90
17632;DHT22;8934;51.194;17.150;2023-03-24T12:06:54;18.80;99.90
17632;DHT22;8934;51.194;17.150;2023-03-24T12:09:51;18.80;99.90
17632;DHT22;8934;51.194;17.150;2023-03-24T12:12:49;18.80;99.90
17632;DHT22;8934;51.194;17.150;2023-03-24T12:15:48;18.70;99.90
17632;DHT22;8934;51.194;17.150;2023-03-24T12:18:54;18.60;99.90
17632;DHT22;8934;51.194;17.150;2023-03-24T12:21:53;18.40;99.90
17632;DHT22;8934;51.194;17.150;2023-03-24T12:24:58;18.20;99.90
17632;DHT22;8934;51.194;17.150;2023-03-24T12:27:55;18.00;99.90
17632;DHT22;8934;51.194;17.150;2023-03-24T12:30:55;18.00;99.90
17632;DHT22;8934;51.194;17.150;2023-03-24T12:33:53;18.00;99.90
17632;DHT22;8934;51.194;17.150;2023-03-24T12:36:50;17.90;99.90
17632;DHT22;8934;51.194;17.150;2023-03-24T12:39:46;17.90;99.90
17632;DHT22;8934;51.194;17.150;2023-03-24T12:42:39;17.80;99.90
17632;DHT22;8934;51.194;17.150;2023-03-24T12:45:34;17.70;99.90
17632;DHT22;8934;51.194;17.150;2023-03-24T12:48:43;17.60;99.90
17632;DHT22;8934;51.194;17.150;2023-03-24T12:51:39;17.50;99.90
17632;DHT22;8934;51.194;17.150;2023-03-24T12:54:34;17.50;99.90
17632;DHT22;8934;51.194;17.150;2023-03-24T12:57:27;17.50;99.90
17632;DHT22;8934;51.194;17.150;2023-03-24T13:00:20;17.40;99.90
17632;DHT22;8934;51.194;17.150;2023-03-24T13:03:13;17.30;99.90
17632;DHT22;8934;51.194;17.150;2023-03-24T13:06:11;17.20;99.90
17632;DHT22;8934;51.194;17.150;2023-03-24T13:09:09;17.10;99.90
17632;DHT22;8934;51.194;17.150;2023-03-24T13:12:02;17.00;99.90
17632;DHT22;8934;51.194;17.150;2023-03-24T13:14:59;17.10;99.90
17632;DHT22;8934;51.194;17.150;2023-03-24T13:17:53;17.00;99.90
17632;DHT22;8934;51.194;17.150;2023-03-24T13:20:45;17.10;99.90
17632;DHT22;8934;51.194;17.150;2023-03-24T13:23:40;17.10;99.90
17632;DHT22;8934;51.194;17.150;2023-03-24T13:26:36;17.10;99.90
17632;DHT22;8934;51.194;17.150;2023-03-24T13:29:48;17.00;99.90
17632;DHT22;8934;51.194;17.150;2023-03-24T13:32:43;16.90;99.90
17632;DHT22;8934;51.194;17.150;2023-03-24T13:35:44;16.90;99.90
17632;DHT22;8934;51.194;17.150;2023-03-24T13:38:41;16.80;99.90
17632;DHT22;8934;51.194;17.150;2023-03-24T13:41:34;16.80;99.90
17632;DHT22;8934;51.194;17.150;2023-03-24T13:44:24;16.70;99.90
17632;DHT22;8934;51.194;17.150;2023-03-24T13:47:16;16.50;99.90
17632;DHT22;8934;51.194;17.150;2023-03-24T13:50:05;16.40;99.90
17632;DHT22;8934;51.194;17.150;2023-03-24T13:52:53;16.30;99.90
17632;DHT22;8934;51.194;17.150;2023-03-24T13:55:47;16.10;99.90
17632;DHT22;8934;51.194;17.150;2023-03-24T14:02:22;15.80;99.90
17632;DHT22;8934;51.194;17.150;2023-03-24T14:05:11;15.70;99.90
17632;DHT22;8934;51.194;17.150;2023-03-24T14:08:16;15.70;99.90
17632;DHT22;8934;51.194;17.150;2023-03-24T14:11:04;15.60;99.90
17632;DHT22;8934;51.194;17.150;2023-03-24T14:13:52;15.60;99.90
17632;DHT22;8934;51.194;17.150;2023-03-24T14:16:42;15.60;99.90
17632;DHT22;8934;51.194;17.150;2023-03-24T14:19:35;15.60;99.90
17632;DHT22;8934;51.194;17.150;2023-03-24T14:22:27;15.70;99.90
17632;DHT22;8934;51.194;17.150;2023-03-24T14:25:24;15.80;99.90
17632;DHT22;8934;51.194;17.150;2023-03-24T14:28:24;15.90;99.90
17632;DHT22;8934;51.194;17.150;2023-03-24T14:31:21;16.00;99.90
17632;DHT22;8934;51.194;17.150;2023-03-24T14:34:14;16.00;99.90
17632;DHT22;8934;51.194;17.150;2023-03-24T14:37:07;16.00;99.90
17632;DHT22;8934;51.194;17.150;2023-03-24T14:39:57;16.00;99.90
17632;DHT22;8934;51.194;17.150;2023-03-24T14:43:01;15.90;99.90
17632;DHT22;8934;51.194;17.150;2023-03-24T14:45:58;15.80;99.90
17632;DHT22;8934;51.194;17.150;2023-03-24T14:48:53;15.80;99.90
17632;DHT22;8934;51.194;17.150;2023-03-24T14:51:44;15.70;99.90
17632;DHT22;8934;51.194;17.150;2023-03-24T14:54:38;15.60;99.90
17632;DHT22;8934;51.194;17.150;2023-03-24T14:57:29;15.50;99.90
17632;DHT22;8934;51.194;17.150;2023-03-24T15:00:20;15.50;99.90
17632;DHT22;8934;51.194;17.150;2023-03-24T15:03:16;15.60;99.90
17632;DHT22;8934;51.194;17.150;2023-03-24T15:06:14;15.60;99.90
17632;DHT22;8934;51.194;17.150;2023-03-24T15:09:09;15.70;99.90
17632;DHT22;8934;51.194;17.150;2023-03-24T15:11:59;15.70;99.90
17632;DHT22;8934;51.194;17.150;2023-03-24T15:14:48;15.80;99.90
17632;DHT22;8934;51.194;17.150;2023-03-24T15:17:37;15.70;99.90
17632;DHT22;8934;51.194;17.150;2023-03-24T15:20:26;15.70;99.90
17632;DHT22;8934;51.194;17.150;2023-03-24T15:23:17;15.60;99.90
17632;DHT22;8934;51.194;17.150;2023-03-24T15:26:11;15.70;99.90
17632;DHT22;8934;51.194;17.150;2023-03-24T15:29:04;15.70;99.90
17632;DHT22;8934;51.194;17.150;2023-03-24T15:31:52;15.80;99.90
17632;DHT22;8934;51.194;17.150;2023-03-24T15:34:41;15.90;99.90
17632;DHT22;8934;51.194;17.150;2023-03-24T15:37:33;16.20;99.90
17632;DHT22;8934;51.194;17.150;2023-03-24T15:40:35;16.40;99.90
17632;DHT22;8934;51.194;17.150;2023-03-24T15:43:23;16.60;99.90
17632;DHT22;8934;51.194;17.150;2023-03-24T15:46:22;16.70;99.90
17632;DHT22;8934;51.194;17.150;2023-03-24T15:49:19;16.80;99.90
17632;DHT22;8934;51.194;17.150;2023-03-24T15:52:24;16.80;99.90
17632;DHT22;8934;51.194;17.150;2023-03-24T15:55:22;16.80;99.90
17632;DHT22;8934;51.194;17.150;2023-03-24T15:58:22;16.80;99.90
17632;DHT22;8934;51.194;17.150;2023-03-24T16:01:14;16.90;99.90
17632;DHT22;8934;51.194;17.150;2023-03-24T16:04:09;16.90;99.90
17632;DHT22;8934;51.194;17.150;2023-03-24T16:06:59;16.90;99.90
17632;DHT22;8934;51.194;17.150;2023-03-24T16:09:54;16.80;99.90
17632;DHT22;8934;51.194;17.150;2023-03-24T16:12:44;16.80;99.90
17632;DHT22;8934;51.194;17.150;2023-03-24T16:15:32;16.80;99.90
17632;DHT22;8934;51.194;17.150;2023-03-24T16:18:21;16.80;99.90
17632;DHT22;8934;51.194;17.150;2023-03-24T16:21:13;16.80;99.90
17632;DHT22;8934;51.194;17.150;2023-03-24T16:24:01;16.70;99.90
17632;DHT22;8934;51.194;17.150;2023-03-24T16:26:49;16.70;99.90
17632;DHT22;8934;51.194;17.150;2023-03-24T16:29:36;16.70;99.90
17632;DHT22;8934;51.194;17.150;2023-03-24T16:32:24;16.70;99.90
17632;DHT22;8934;51.194;17.150;2023-03-24T16:35:12;16.60;99.90
17632;DHT22;8934;51.194;17.150;2023-03-24T16:38:01;16.60;99.90
17632;DHT22;8934;51.194;17.150;2023-03-24T16:40:50;16.60;99.90
17632;DHT22;8934;51.194;17.150;2023-03-24T16:43:39;16.50;99.90
17632;DHT22;8934;51.194;17.150;2023-03-24T16:46:30;16.50;99.90
17632;DHT22;8934;51.194;17.150;2023-03-24T16:49:19;16.50;99.90
17632;DHT22;8934;51.194;17.150;2023-03-24T16:52:10;16.40;99.90
17632;DHT22;8934;51.194;17.150;2023-03-24T16:54:59;16.20;99.90
17632;DHT22;8934;51.194;17.150;2023-03-24T16:57:47;16.30;99.90
17632;DHT22;8934;51.194;17.150;2023-03-24T17:00:35;16.20;99.90
17632;DHT22;8934;51.194;17.150;2023-03-24T17:03:24;16.10;99.90
17632;DHT22;8934;51.194;17.150;2023-03-24T17:06:16;16.10;99.90
17632;DHT22;8934;51.194;17.150;2023-03-24T17:09:04;16.00;99.90
17632;DHT22;8934;51.194;17.150;2023-03-24T17:11:56;16.00;99.90
17632;DHT22;8934;51.194;17.150;2023-03-24T17:14:45;15.90;99.90
17632;DHT22;8934;51.194;17.150;2023-03-24T17:17:33;15.90;99.90
17632;DHT22;8934;51.194;17.150;2023-03-24T17:20:22;16.00;99.90
17632;DHT22;8934;51.194;17.150;2023-03-24T17:23:12;16.00;99.90
17632;DHT22;8934;51.194;17.150;2023-03-24T17:26:00;16.00;99.90
17632;DHT22;8934;51.194;17.150;2023-03-24T17:28:50;15.90;99.90
17632;DHT22;8934;51.194;17.150;2023-03-24T17:31:37;15.90;99.90
17632;DHT22;8934;51.194;17.150;2023-03-24T17:34:25;15.90;99.90
17632;DHT22;8934;51.194;17.150;2023-03-24T17:37:13;15.80;99.90
17632;DHT22;8934;51.194;17.150;2023-03-24T17:40:01;15.80;99.90
17632;DHT22;8934;51.194;17.150;2023-03-24T17:42:53;15.80;99.90
17632;DHT22;8934;51.194;17.150;2023-03-24T17:45:42;15.80;99.90
17632;DHT22;8934;51.194;17.150;2023-03-24T17:48:30;15.70;99.90
17632;DHT22;8934;51.194;17.150;2023-03-24T17:51:18;15.20;99.90
17632;DHT22;8934;51.194;17.150;2023-03-24T17:54:05;14.60;99.90
17632;DHT22;8934;51.194;17.150;2023-03-24T17:56:55;14.10;99.90
17632;DHT22;8934;51.194;17.150;2023-03-24T17:59:43;13.70;99.90
17632;DHT22;8934;51.194;17.150;2023-03-24T18:02:32;13.50;99.90
17632;DHT22;8934;51.194;17.150;2023-03-24T18:05:20;13.30;99.90
17632;DHT22;8934;51.194;17.150;2023-03-24T18:08:08;13.20;99.90
17632;DHT22;8934;51.194;17.150;2023-03-24T18:11:02;13.10;99.90
17632;DHT22;8934;51.194;17.150;2023-03-24T18:13:50;13.00;99.90
17632;DHT22;8934;51.194;17.150;2023-03-24T18:16:38;12.90;99.90
17632;DHT22;8934;51.194;17.150;2023-03-24T18:19:27;12.70;99.90
17632;DHT22;8934;51.194;17.150;2023-03-24T18:22:15;12.50;99.90
17632;DHT22;8934;51.194;17.150;2023-03-24T18:25:02;12.40;99.90
17632;DHT22;8934;51.194;17.150;2023-03-24T18:27:50;12.30;99.90
17632;DHT22;8934;51.194;17.150;2023-03-24T18:30:41;12.20;99.90
17632;DHT22;8934;51.194;17.150;2023-03-24T18:33:28;12.20;99.90
17632;DHT22;8934;51.194;17.150;2023-03-24T18:36:20;12.10;99.90
17632;DHT22;8934;51.194;17.150;2023-03-24T18:39:12;12.10;99.90
17632;DHT22;8934;51.194;17.150;2023-03-24T18:41:59;12.00;99.90